Time;durP1;ratioP1;P1;durP2;ratioP2;P2;SDS_P1;SDS_P2;PMS_P1;PMS_P2;Temp;Humidity;BMP_temperature;BMP_pressure;BME280_temperature;BME280_humidity;BME280_pressure;Samples;Min_cycle;Max_cycle;Signal;HPM_P1;HPM_P2
2022/02/13 00:00:20;;;;;;;12.63;5.57;;;5.10;99.90;;;;;;4996440;28;20267;-84
2022/02/13 00:02:46;;;;;;;10.07;4.97;;;5.10;99.90;;;;;;5013625;28;20710;-83
2022/02/13 00:05:12;;;;;;;10.20;4.53;;;5.10;99.90;;;;;;5013047;28;20578;-84
2022/02/13 00:07:39;;;;;;;8.83;4.87;;;5.20;99.90;;;;;;4985835;28;20216;-83
2022/02/13 00:10:07;;;;;;;13.90;5.87;;;5.20;99.90;;;;;;4986375;28;20185;-84
2022/02/13 00:12:33;;;;;;;9.70;5.17;;;5.30;99.90;;;;;;4977141;28;20173;-83
2022/02/13 00:14:58;;;;;;;10.10;5.10;;;5.40;99.90;;;;;;4977597;28;20273;-83
2022/02/13 00:17:24;;;;;;;8.07;4.90;;;5.40;99.90;;;;;;4976895;28;20218;-83
2022/02/13 00:19:50;;;;;;;10.80;5.47;;;5.30;99.90;;;;;;5005547;28;20284;-84
2022/02/13 00:22:17;;;;;;;10.17;5.27;;;5.30;99.90;;;;;;4980703;28;20178;-96
2022/02/13 00:24:44;;;;;;;10.40;5.27;;;5.40;99.90;;;;;;4984438;28;20174;-96
2022/02/13 00:27:10;;;;;;;13.53;5.40;;;5.40;99.90;;;;;;5003989;28;20653;-96
2022/02/13 00:29:36;;;;;;;13.13;5.60;;;5.30;99.90;;;;;;4997461;28;20177;-95
2022/02/13 00:32:03;;;;;;;11.23;5.03;;;5.30;99.90;;;;;;4977981;28;20639;-94
2022/02/13 00:34:28;;;;;;;12.30;5.70;;;5.20;99.90;;;;;;4978025;28;20178;-95
2022/02/13 00:36:54;;;;;;;9.17;4.73;;;5.10;99.90;;;;;;4978080;28;20226;-95
2022/02/13 00:39:20;;;;;;;12.47;4.87;;;5.00;99.90;;;;;;4977544;28;20209;-95
2022/02/13 00:41:46;;;;;;;12.37;5.63;;;5.00;99.90;;;;;;4977856;28;20181;-94
2022/02/13 00:44:11;;;;;;;11.93;4.63;;;5.20;99.90;;;;;;4977716;28;20174;-94
2022/02/13 00:46:37;;;;;;;10.67;4.60;;;5.20;99.90;;;;;;4977872;28;20182;-96
2022/02/13 00:49:03;;;;;;;15.50;7.03;;;5.20;99.90;;;;;;4977798;28;20174;-95
2022/02/13 00:51:28;;;;;;;9.50;5.30;;;5.10;99.90;;;;;;4977930;28;20256;-95
2022/02/13 00:53:54;;;;;;;16.80;9.37;;;5.00;99.90;;;;;;4977399;28;20180;-95
2022/02/13 00:56:21;;;;;;;5.73;4.20;;;4.90;99.90;;;;;;4977399;28;20256;-95
2022/02/13 00:58:47;;;;;;;7.83;4.70;;;4.90;99.90;;;;;;4977549;28;20261;-95
2022/02/13 01:01:13;;;;;;;6.57;4.23;;;5.10;99.90;;;;;;4977268;28;20197;-94
2022/02/13 01:03:40;;;;;;;7.33;3.90;;;5.10;99.90;;;;;;4977290;28;20662;-95
2022/02/13 01:06:06;;;;;;;7.60;4.40;;;5.10;99.90;;;;;;4977293;28;20240;-91
2022/02/13 01:08:31;;;;;;;6.93;4.13;;;4.90;99.90;;;;;;4976872;28;20194;-94
2022/02/13 01:10:57;;;;;;;9.93;4.50;;;4.80;99.90;;;;;;4977174;28;20174;-95
2022/02/13 01:13:23;;;;;;;8.63;3.90;;;4.90;99.90;;;;;;4977093;28;20186;-94
2022/02/13 01:15:49;;;;;;;7.27;3.50;;;4.90;99.90;;;;;;4977516;28;20697;-95
2022/02/13 01:18:14;;;;;;;8.83;4.53;;;5.00;99.90;;;;;;4976885;28;20185;-94
2022/02/13 01:20:40;;;;;;;10.57;4.30;;;5.00;99.90;;;;;;4976974;28;20228;-95
2022/02/13 01:23:06;;;;;;;7.90;4.03;;;5.10;99.90;;;;;;4977144;28;20186;-94
2022/02/13 01:25:32;;;;;;;8.47;4.33;;;5.20;99.90;;;;;;4977426;28;20269;-95
2022/02/13 01:27:58;;;;;;;7.73;4.47;;;5.20;99.90;;;;;;4977797;28;20667;-95
2022/02/13 01:30:24;;;;;;;8.40;4.10;;;5.10;99.90;;;;;;4981646;28;20250;-94
2022/02/13 01:32:50;;;;;;;7.63;4.03;;;5.20;99.90;;;;;;4981717;28;20209;-95
2022/02/13 01:35:15;;;;;;;7.63;5.23;;;5.20;99.90;;;;;;4978312;28;20545;-95
2022/02/13 01:37:41;;;;;;;9.07;4.30;;;5.20;99.90;;;;;;4978920;28;20225;-96
2022/02/13 01:40:07;;;;;;;8.23;4.17;;;5.30;99.90;;;;;;4987570;28;20643;-95
2022/02/13 01:42:33;;;;;;;9.57;4.30;;;5.30;99.90;;;;;;4990583;28;20179;-92
2022/02/13 01:44:58;;;;;;;8.47;4.07;;;5.10;99.90;;;;;;4977809;28;20181;-94
2022/02/13 01:47:24;;;;;;;7.87;3.90;;;5.20;99.90;;;;;;4977670;28;20170;-95
2022/02/13 01:49:50;;;;;;;8.77;4.70;;;5.20;99.90;;;;;;4976887;28;20177;-95
2022/02/13 01:52:16;;;;;;;9.10;4.53;;;5.20;99.90;;;;;;4977717;28;20170;-95
2022/02/13 01:54:43;;;;;;;6.70;3.73;;;5.10;99.90;;;;;;4977180;28;20177;-95
2022/02/13 01:57:10;;;;;;;11.17;5.10;;;5.00;99.90;;;;;;4977537;28;20209;-95
2022/02/13 01:59:36;;;;;;;8.33;4.23;;;5.00;99.90;;;;;;4980119;28;20177;-96
2022/02/13 02:02:03;;;;;;;8.67;4.43;;;5.10;99.90;;;;;;4979122;28;20257;-96
2022/02/13 02:04:28;;;;;;;9.07;4.57;;;5.10;99.90;;;;;;4979183;28;20246;-96
2022/02/13 02:06:54;;;;;;;9.13;4.33;;;5.10;99.90;;;;;;4979555;28;20201;-96
2022/02/13 02:09:24;;;;;;;9.57;4.60;;;5.20;99.90;;;;;;4978754;28;20273;-94
2022/02/13 02:11:55;;;;;;;9.50;4.20;;;5.20;99.90;;;;;;4987970;28;20182;-95
2022/02/13 02:14:21;;;;;;;9.20;3.90;;;5.10;99.90;;;;;;4978154;28;20178;-96
2022/02/13 02:16:47;;;;;;;8.00;4.17;;;5.10;99.90;;;;;;4980222;28;20205;-96
2022/02/13 02:19:13;;;;;;;12.83;5.07;;;5.10;99.90;;;;;;4978734;28;20170;-96
2022/02/13 02:21:43;;;;;;;6.87;4.50;;;5.10;99.90;;;;;;4977897;28;20260;-96
2022/02/13 02:24:14;;;;;;;9.07;4.73;;;5.10;99.90;;;;;;4979120;28;20180;-94
2022/02/13 02:26:40;;;;;;;7.33;4.33;;;5.00;99.90;;;;;;4977465;28;20236;-96
2022/02/13 02:29:06;;;;;;;7.17;4.20;;;5.00;99.90;;;;;;4977955;28;20196;-96
2022/02/13 02:31:32;;;;;;;7.53;4.37;;;4.90;99.90;;;;;;4978011;28;20646;-96
2022/02/13 02:33:57;;;;;;;6.97;4.60;;;5.00;99.90;;;;;;4977427;28;20634;-94
2022/02/13 02:36:23;;;;;;;8.93;4.77;;;5.00;99.90;;;;;;4976074;28;20226;-94
2022/02/13 02:38:49;;;;;;;8.67;4.30;;;4.90;99.90;;;;;;4976727;28;20222;-94
2022/02/13 02:41:15;;;;;;;8.13;5.00;;;4.90;99.90;;;;;;4977196;28;20573;-92
2022/02/13 02:43:41;;;;;;;11.47;4.43;;;4.80;99.90;;;;;;4979924;28;20224;-92
2022/02/13 02:46:09;;;;;;;10.43;4.90;;;4.70;99.90;;;;;;4979951;28;20182;-94
2022/02/13 02:48:35;;;;;;;9.83;4.40;;;4.80;99.90;;;;;;4979862;28;20182;-93
2022/02/13 02:51:02;;;;;;;10.43;5.10;;;4.80;99.90;;;;;;4979849;28;20269;-94
2022/02/13 02:53:28;;;;;;;12.40;5.03;;;4.80;99.90;;;;;;4980028;28;20181;-94
2022/02/13 02:55:55;;;;;;;8.27;4.90;;;4.80;99.90;;;;;;4979511;28;20205;-94
2022/02/13 02:58:21;;;;;;;9.37;5.37;;;5.00;99.90;;;;;;4979741;28;20186;-95
2022/02/13 03:00:48;;;;;;;6.00;4.17;;;5.00;99.90;;;;;;4979631;28;20189;-94
2022/02/13 03:03:13;;;;;;;7.90;5.40;;;5.00;99.90;;;;;;4979713;28;20276;-95
2022/02/13 03:05:39;;;;;;;8.90;4.27;;;4.90;99.90;;;;;;4979224;28;20693;-95
2022/02/13 03:08:05;;;;;;;10.40;4.70;;;4.90;99.90;;;;;;4979630;28;20225;-95
2022/02/13 03:10:30;;;;;;;13.83;5.17;;;4.90;99.90;;;;;;4979483;28;20170;-92
2022/02/13 03:12:56;;;;;;;8.80;4.83;;;4.80;99.90;;;;;;4979937;28;20185;-95
2022/02/13 03:15:21;;;;;;;10.50;4.47;;;4.80;99.90;;;;;;4979580;28;20264;-95
2022/02/13 03:17:47;;;;;;;7.93;4.43;;;4.60;99.90;;;;;;4979037;28;20252;-95
2022/02/13 03:20:13;;;;;;;7.43;4.67;;;4.70;99.90;;;;;;4979399;28;20707;-95
2022/02/13 03:22:38;;;;;;;8.00;4.70;;;4.80;99.90;;;;;;4979263;28;20261;-95
2022/02/13 03:25:04;;;;;;;8.43;4.17;;;4.80;99.90;;;;;;4979286;28;20256;-95
2022/02/13 03:27:30;;;;;;;9.40;5.00;;;4.80;99.90;;;;;;4978994;28;20178;-96
2022/02/13 03:29:56;;;;;;;8.03;4.10;;;4.80;99.90;;;;;;4979258;28;20228;-95
2022/02/13 03:32:22;;;;;;;7.53;4.57;;;4.80;99.90;;;;;;4978785;28;20652;-96
2022/02/13 03:34:48;;;;;;;8.63;5.07;;;4.70;99.90;;;;;;4979156;28;20197;-96
2022/02/13 03:37:14;;;;;;;8.13;5.17;;;4.80;99.90;;;;;;4979023;28;20229;-96
2022/02/13 03:39:40;;;;;;;6.00;4.17;;;4.60;99.90;;;;;;4979182;28;20302;-96
2022/02/13 03:42:06;;;;;;;7.87;4.30;;;4.60;99.90;;;;;;4978943;28;20178;-95
2022/02/13 03:44:33;;;;;;;12.97;4.97;;;4.60;99.90;;;;;;4978787;28;20185;-95
2022/02/13 03:46:59;;;;;;;8.17;4.03;;;4.70;99.90;;;;;;4978446;28;20197;-94
2022/02/13 03:49:25;;;;;;;9.37;5.23;;;4.60;99.90;;;;;;4978878;28;20174;-95
2022/02/13 03:51:50;;;;;;;7.30;4.47;;;4.60;99.90;;;;;;4978574;28;20570;-94
2022/02/13 03:54:16;;;;;;;9.40;4.40;;;4.50;99.90;;;;;;4978839;28;20174;-95
2022/02/13 03:56:42;;;;;;;6.47;4.40;;;4.50;99.90;;;;;;4978501;28;20221;-95
2022/02/13 03:59:08;;;;;;;10.33;5.20;;;4.50;99.90;;;;;;4978814;28;20192;-95
2022/02/13 04:01:33;;;;;;;7.93;4.87;;;4.50;99.90;;;;;;4978532;28;20182;-95
2022/02/13 04:03:59;;;;;;;9.20;4.67;;;4.50;99.90;;;;;;4978623;28;20197;-95
2022/02/13 04:06:25;;;;;;;9.33;5.63;;;4.50;99.90;;;;;;4978266;28;20185;-96
2022/02/13 04:08:50;;;;;;;9.20;5.80;;;4.50;99.90;;;;;;4978847;28;20194;-95
2022/02/13 04:11:16;;;;;;;11.20;5.70;;;4.50;99.90;;;;;;4979027;28;20173;-96
2022/02/13 04:13:41;;;;;;;7.00;4.53;;;4.50;99.90;;;;;;4978992;28;20677;-96
2022/02/13 04:16:08;;;;;;;6.43;4.77;;;4.60;99.90;;;;;;4982610;28;20201;-93
2022/02/13 04:18:34;;;;;;;8.33;4.70;;;4.50;99.90;;;;;;4990250;28;20174;-95
2022/02/13 04:20:59;;;;;;;11.70;5.23;;;4.50;99.90;;;;;;4987471;28;20265;-96
2022/02/13 04:23:31;;;;;;;7.17;5.20;;;4.50;99.90;;;;;;4980455;28;20647;-96
2022/02/13 04:26:00;;;;;;;10.90;5.20;;;4.40;99.90;;;;;;4980548;28;20218;-96
2022/02/13 04:28:26;;;;;;;10.20;4.90;;;4.40;99.90;;;;;;4977836;28;20185;-95
2022/02/13 04:30:55;;;;;;;8.90;6.20;;;4.40;99.90;;;;;;4977770;28;20186;-93
2022/02/13 04:33:22;;;;;;;9.53;5.17;;;4.50;99.90;;;;;;4977852;28;20189;-94
2022/02/13 04:35:48;;;;;;;10.10;4.80;;;4.50;99.90;;;;;;4977748;28;20174;-95
2022/02/13 04:38:15;;;;;;;11.77;5.33;;;4.60;99.90;;;;;;4977745;28;20190;-94
2022/02/13 04:40:40;;;;;;;9.57;5.27;;;4.60;99.90;;;;;;4977739;28;20193;-94
2022/02/13 04:43:06;;;;;;;6.97;4.97;;;4.60;99.90;;;;;;4977728;28;20192;-94
2022/02/13 04:45:32;;;;;;;8.83;4.50;;;4.50;99.90;;;;;;4977346;28;20174;-95
2022/02/13 04:47:58;;;;;;;9.50;7.33;;;4.50;99.90;;;;;;4977309;28;20185;-93
2022/02/13 04:50:23;;;;;;;9.30;5.23;;;4.50;99.90;;;;;;4977546;28;20203;-92
2022/02/13 04:52:53;;;;;;;9.50;4.77;;;4.50;99.90;;;;;;4977931;28;20174;-94
2022/02/13 04:55:19;;;;;;;9.10;4.60;;;4.60;99.90;;;;;;4977597;28;20656;-94
2022/02/13 04:57:46;;;;;;;8.50;5.40;;;4.60;99.90;;;;;;4977456;28;20216;-94
2022/02/13 05:00:14;;;;;;;7.77;4.83;;;4.50;99.90;;;;;;4977030;28;20178;-94
2022/02/13 05:02:41;;;;;;;7.70;4.50;;;4.50;99.90;;;;;;4977556;28;20205;-94
2022/02/13 05:05:07;;;;;;;8.07;5.40;;;4.30;99.90;;;;;;4976456;28;20201;-95
2022/02/13 05:07:33;;;;;;;8.27;5.90;;;4.20;99.90;;;;;;4977344;28;20204;-95
2022/02/13 05:10:01;;;;;;;10.07;8.37;;;4.20;99.90;;;;;;4977386;28;20185;-94
2022/02/13 05:12:26;;;;;;;10.90;5.53;;;4.20;99.90;;;;;;4978169;28;20269;-95
2022/02/13 05:14:52;;;;;;;6.93;4.30;;;4.10;99.90;;;;;;4977169;28;20220;-95
2022/02/13 05:17:19;;;;;;;8.17;4.70;;;4.10;99.90;;;;;;4977680;28;20217;-95
2022/02/13 05:19:44;;;;;;;10.77;5.47;;;4.10;99.90;;;;;;4977586;28;20207;-96
2022/02/13 05:22:11;;;;;;;8.93;4.40;;;4.20;99.90;;;;;;4977714;28;20193;-94
2022/02/13 05:24:37;;;;;;;9.47;5.13;;;4.30;99.90;;;;;;4977230;28;20812;-95
2022/02/13 05:27:06;;;;;;;8.50;5.63;;;4.20;99.90;;;;;;4978153;28;20185;-95
2022/02/13 05:29:35;;;;;;;8.47;5.17;;;4.20;99.90;;;;;;4977457;28;20265;-95
2022/02/13 05:32:06;;;;;;;9.00;4.70;;;4.20;99.90;;;;;;4978494;28;20178;-95
2022/02/13 05:34:32;;;;;;;9.00;4.83;;;4.10;99.90;;;;;;4978594;28;20530;-95
2022/02/13 05:36:57;;;;;;;13.30;5.40;;;4.10;99.90;;;;;;4977681;28;20272;-96
2022/02/13 05:39:23;;;;;;;7.00;4.80;;;4.10;99.90;;;;;;4977951;28;20174;-96
2022/02/13 05:41:49;;;;;;;7.80;4.50;;;4.10;99.90;;;;;;4978828;28;20225;-95
2022/02/13 05:44:15;;;;;;;5.90;4.13;;;4.10;99.90;;;;;;4979345;28;20524;-95
2022/02/13 05:46:41;;;;;;;7.50;4.90;;;4.20;99.90;;;;;;4977681;28;20185;-95
2022/02/13 05:49:07;;;;;;;7.80;5.10;;;4.30;99.90;;;;;;4979282;28;20594;-95
2022/02/13 05:51:34;;;;;;;8.83;5.70;;;4.30;99.90;;;;;;4977783;28;20178;-95
2022/02/13 05:53:59;;;;;;;11.43;4.60;;;4.30;99.90;;;;;;4977415;28;20193;-93
2022/02/13 05:56:25;;;;;;;7.87;4.40;;;4.30;99.90;;;;;;4976995;28;20202;-95
2022/02/13 05:58:51;;;;;;;10.27;4.80;;;4.40;99.90;;;;;;4976829;28;20166;-94
2022/02/13 06:01:18;;;;;;;7.83;4.73;;;4.40;99.90;;;;;;4976605;28;20289;-93
2022/02/13 06:03:44;;;;;;;9.07;4.87;;;4.30;99.90;;;;;;4976923;28;20279;-96
2022/02/13 06:06:10;;;;;;;7.27;4.30;;;4.40;99.90;;;;;;4977144;28;20181;-94
2022/02/13 06:08:36;;;;;;;9.03;4.87;;;4.30;99.90;;;;;;4976782;28;20229;-94
2022/02/13 06:11:04;;;;;;;8.43;4.50;;;4.30;99.90;;;;;;4980299;28;20170;-96
2022/02/13 06:13:29;;;;;;;7.07;4.13;;;4.50;99.90;;;;;;4980152;28;20623;-94
2022/02/13 06:15:55;;;;;;;8.27;4.17;;;4.40;99.90;;;;;;4982765;28;20166;-96
2022/02/13 06:18:21;;;;;;;8.83;4.10;;;4.40;99.90;;;;;;4985004;28;20197;-95
2022/02/13 06:20:47;;;;;;;7.17;4.60;;;4.40;99.90;;;;;;4982307;28;20197;-95
2022/02/13 06:23:13;;;;;;;7.80;4.53;;;4.40;99.90;;;;;;4982454;28;20186;-96
2022/02/13 06:25:39;;;;;;;6.70;4.03;;;4.50;99.90;;;;;;4980661;28;20177;-95
2022/02/13 06:28:06;;;;;;;5.93;4.10;;;4.50;99.90;;;;;;4981093;28;20190;-95
2022/02/13 06:30:32;;;;;;;9.10;4.67;;;4.60;99.90;;;;;;4981137;28;20541;-96
2022/02/13 06:32:59;;;;;;;7.40;4.83;;;4.70;99.90;;;;;;4981322;28;20558;-96
2022/02/13 06:35:26;;;;;;;8.37;4.20;;;4.70;99.90;;;;;;4980761;28;20186;-96
2022/02/13 06:37:51;;;;;;;6.87;4.00;;;4.80;99.90;;;;;;4980284;28;20301;-95
2022/02/13 06:40:17;;;;;;;8.97;3.93;;;4.90;99.90;;;;;;4980236;28;20189;-96
2022/02/13 06:42:43;;;;;;;5.57;4.03;;;4.90;99.90;;;;;;4982006;28;20185;-95
2022/02/13 06:45:09;;;;;;;6.83;4.03;;;5.00;99.90;;;;;;4982400;28;20182;-96
2022/02/13 06:47:35;;;;;;;7.13;4.13;;;4.90;99.90;;;;;;4982517;28;20170;-96
2022/02/13 06:50:02;;;;;;;7.07;4.07;;;4.90;99.90;;;;;;4980886;28;20220;-95
2022/02/13 06:52:28;;;;;;;6.43;4.17;;;5.00;99.90;;;;;;4980528;28;20178;-96
2022/02/13 06:54:54;;;;;;;6.47;4.33;;;5.00;99.90;;;;;;4980525;28;20197;-96
2022/02/13 06:57:20;;;;;;;7.47;4.00;;;4.90;99.90;;;;;;4980220;28;20313;-96
2022/02/13 06:59:46;;;;;;;9.30;3.60;;;4.90;99.90;;;;;;4979934;28;20206;-94
2022/02/13 07:02:12;;;;;;;7.40;4.27;;;4.90;99.90;;;;;;4980519;28;20611;-96
2022/02/13 07:04:38;;;;;;;8.83;4.03;;;4.90;99.90;;;;;;4980793;28;20202;-92
2022/02/13 07:07:11;;;;;;;8.27;4.17;;;4.90;99.90;;;;;;4991265;28;20206;-96
2022/02/13 07:09:36;;;;;;;7.10;4.47;;;4.90;99.90;;;;;;4989905;28;20189;-92
2022/02/13 07:12:09;;;;;;;8.13;4.43;;;4.90;99.90;;;;;;4980339;28;20174;-96
2022/02/13 07:14:39;;;;;;;9.87;4.40;;;4.90;99.90;;;;;;4979892;28;20174;-96
2022/02/13 07:17:05;;;;;;;6.20;3.97;;;4.90;99.90;;;;;;4979672;28;20217;-95
2022/02/13 07:19:32;;;;;;;8.77;4.43;;;4.90;99.90;;;;;;4979711;28;20185;-91
2022/02/13 07:21:58;;;;;;;7.57;3.60;;;4.90;99.90;;;;;;4979334;28;20192;-96
2022/02/13 07:24:24;;;;;;;7.43;4.23;;;4.80;99.90;;;;;;4979009;28;20678;-96
2022/02/13 07:26:50;;;;;;;6.67;4.37;;;4.90;99.90;;;;;;4978773;28;20269;-96
2022/02/13 07:29:16;;;;;;;7.00;4.23;;;4.90;99.90;;;;;;4979598;28;20174;-96
2022/02/13 07:31:42;;;;;;;7.20;4.03;;;5.00;99.90;;;;;;4979875;28;20225;-96
2022/02/13 07:34:07;;;;;;;8.37;4.13;;;5.00;99.90;;;;;;4979312;28;20178;-96
2022/02/13 07:36:34;;;;;;;7.53;4.17;;;5.20;99.90;;;;;;4979401;28;20709;-96
2022/02/13 07:39:00;;;;;;;9.10;5.60;;;5.20;99.90;;;;;;4978789;28;20174;-91
2022/02/13 07:41:26;;;;;;;10.53;4.77;;;5.30;99.90;;;;;;4978984;28;20638;-94
2022/02/13 07:43:53;;;;;;;14.80;9.17;;;5.20;99.90;;;;;;4978859;28;20220;-94
2022/02/13 07:46:20;;;;;;;9.90;6.30;;;5.30;99.90;;;;;;4978737;28;20178;-94
2022/02/13 07:48:46;;;;;;;11.33;6.93;;;5.30;99.90;;;;;;4978799;28;20178;-95
2022/02/13 07:51:13;;;;;;;12.07;5.00;;;5.40;99.90;;;;;;4979776;28;20177;-93
2022/02/13 07:53:40;;;;;;;6.53;4.00;;;5.40;99.90;;;;;;4982305;28;20193;-92
2022/02/13 07:56:07;;;;;;;9.43;6.27;;;5.40;99.90;;;;;;4978611;28;20204;-95
2022/02/13 07:58:32;;;;;;;7.33;4.03;;;5.50;99.90;;;;;;4978526;28;20193;-94
2022/02/13 08:01:06;;;;;;;18.13;12.33;;;5.60;99.90;;;;;;4978773;28;20181;-95
2022/02/13 08:03:33;;;;;;;8.53;5.13;;;5.60;99.90;;;;;;4978602;28;20742;-93
2022/02/13 08:06:00;;;;;;;5.70;3.90;;;5.60;99.90;;;;;;4978691;28;20196;-94
2022/02/13 08:08:25;;;;;;;6.83;4.87;;;5.60;99.90;;;;;;4978130;28;20190;-95
2022/02/13 08:10:51;;;;;;;9.03;4.73;;;5.60;99.90;;;;;;4978684;28;20181;-93
2022/02/13 08:13:17;;;;;;;7.80;4.70;;;5.70;99.90;;;;;;4978305;28;20174;-94
2022/02/13 08:15:43;;;;;;;7.03;4.20;;;5.70;99.90;;;;;;4978932;28;20181;-94
2022/02/13 08:18:14;;;;;;;5.73;4.33;;;5.70;99.90;;;;;;4979210;28;20252;-93
2022/02/13 08:20:41;;;;;;;6.73;4.40;;;5.80;99.90;;;;;;4979364;28;20185;-94
2022/02/13 08:23:08;;;;;;;8.53;4.20;;;5.70;99.90;;;;;;4978687;28;20181;-94
2022/02/13 08:25:34;;;;;;;7.23;4.63;;;5.70;99.90;;;;;;4979506;28;20177;-94
2022/02/13 08:28:00;;;;;;;7.43;4.63;;;5.80;99.90;;;;;;4978971;28;20295;-95
2022/02/13 08:30:26;;;;;;;8.43;4.20;;;5.90;99.90;;;;;;4979640;28;20455;-95
2022/02/13 08:32:52;;;;;;;7.00;4.60;;;5.90;99.90;;;;;;4979970;28;20213;-93
2022/02/13 08:35:17;;;;;;;6.37;4.57;;;6.00;99.90;;;;;;4980323;28;20181;-95
2022/02/13 08:37:43;;;;;;;8.07;4.47;;;6.00;99.90;;;;;;4979459;28;20213;-95
2022/02/13 08:40:10;;;;;;;8.00;4.30;;;6.10;99.90;;;;;;4980124;28;20542;-96
2022/02/13 08:42:36;;;;;;;7.37;4.33;;;6.10;99.90;;;;;;4978826;28;20454;-94
2022/02/13 08:45:03;;;;;;;8.37;4.17;;;6.20;99.90;;;;;;4981639;28;20720;-90
2022/02/13 08:47:30;;;;;;;7.70;4.23;;;6.20;99.90;;;;;;4998259;28;20191;-95
2022/02/13 08:49:55;;;;;;;7.10;4.53;;;6.20;99.90;;;;;;4997841;28;20169;-95
2022/02/13 08:52:24;;;;;;;7.00;4.37;;;6.30;99.90;;;;;;4997400;28;20200;-94
2022/02/13 08:54:50;;;;;;;12.77;6.20;;;6.50;99.90;;;;;;4998507;28;20268;-95
2022/02/13 08:57:15;;;;;;;6.50;4.17;;;6.50;99.90;;;;;;4998923;28;20235;-94
2022/02/13 08:59:41;;;;;;;9.50;4.17;;;6.70;99.90;;;;;;4998217;28;20635;-93
2022/02/13 09:02:06;;;;;;;6.97;4.10;;;6.80;99.90;;;;;;4997957;28;20205;-95
2022/02/13 09:04:34;;;;;;;6.60;4.27;;;6.80;99.90;;;;;;4997582;28;20198;-95
2022/02/13 09:07:00;;;;;;;5.67;4.10;;;6.70;99.90;;;;;;4997605;28;20208;-95
2022/02/13 09:09:26;;;;;;;7.10;4.40;;;6.70;99.90;;;;;;4999288;28;20276;-95
2022/02/13 09:11:52;;;;;;;4.77;3.70;;;6.90;99.90;;;;;;4997517;28;20264;-94
2022/02/13 09:14:18;;;;;;;7.03;4.17;;;6.90;99.90;;;;;;4997039;28;20228;-92
2022/02/13 09:16:43;;;;;;;10.77;4.90;;;6.80;99.90;;;;;;4996694;28;20221;-92
2022/02/13 09:19:09;;;;;;;8.43;4.67;;;6.90;99.90;;;;;;4996771;28;20177;-95
2022/02/13 09:21:37;;;;;;;7.73;4.03;;;6.90;99.90;;;;;;5013892;28;20179;-94
2022/02/13 09:24:04;;;;;;;6.90;4.73;;;7.00;99.90;;;;;;4996442;28;20177;-95
2022/02/13 15:12:17;;;;;;;10.33;4.10;;;12.60;98.10;;;;;;5032699;28;20711;-86
2022/02/13 15:14:46;;;;;;;11.80;3.97;;;12.70;97.90;;;;;;5017984;28;20208;-90
2022/02/13 15:17:12;;;;;;;8.83;3.90;;;12.80;97.70;;;;;;5017301;28;20295;-90
2022/02/13 15:19:37;;;;;;;8.53;4.40;;;12.80;97.70;;;;;;5018125;28;20260;-90
2022/02/13 15:22:03;;;;;;;9.53;4.33;;;12.70;98.00;;;;;;5018382;28;20182;-89
2022/02/13 15:24:28;;;;;;;11.57;4.13;;;12.80;97.80;;;;;;5017917;28;20180;-90
2022/02/13 15:26:54;;;;;;;9.00;3.63;;;12.70;97.90;;;;;;5018105;28;20215;-89
2022/02/13 15:29:21;;;;;;;7.67;4.03;;;12.60;97.90;;;;;;5033074;28;20231;-91
2022/02/13 15:31:47;;;;;;;8.50;4.30;;;12.60;98.10;;;;;;5035563;28;20176;-91
2022/02/13 15:34:12;;;;;;;10.17;4.17;;;12.50;98.20;;;;;;5033163;28;20183;-90
2022/02/13 15:36:38;;;;;;;6.43;3.73;;;12.70;97.90;;;;;;5019707;28;20225;-89
2022/02/13 15:39:04;;;;;;;8.83;4.37;;;12.90;97.70;;;;;;4998127;28;20228;-92
2022/02/13 15:41:29;;;;;;;8.83;3.57;;;12.80;97.60;;;;;;5016075;28;20257;-90
2022/02/13 15:43:55;;;;;;;9.67;3.87;;;12.50;98.00;;;;;;4999024;28;20208;-90
2022/02/13 15:46:21;;;;;;;7.17;4.00;;;12.50;98.10;;;;;;5007074;28;20181;-89
2022/02/13 15:48:47;;;;;;;9.83;4.00;;;12.20;98.80;;;;;;4997797;28;20622;-90
2022/02/13 15:51:14;;;;;;;7.43;3.73;;;12.10;98.90;;;;;;4998744;28;20181;-91
2022/02/13 15:53:40;;;;;;;8.97;4.00;;;12.10;99.00;;;;;;4998229;28;20177;-91
2022/02/13 15:56:06;;;;;;;9.90;4.13;;;12.00;99.20;;;;;;5002315;28;20622;-89
2022/02/13 15:58:31;;;;;;;8.10;4.10;;;12.10;99.10;;;;;;5002206;28;20186;-90
2022/02/13 16:00:58;;;;;;;11.93;3.73;;;12.00;99.20;;;;;;5014641;28;20247;-91
2022/02/13 16:03:23;;;;;;;12.17;4.20;;;11.90;99.70;;;;;;5018510;28;20201;-91
2022/02/13 16:05:49;;;;;;;7.93;3.63;;;11.90;99.60;;;;;;5000915;28;20185;-91
2022/02/13 16:08:15;;;;;;;12.03;4.00;;;11.90;99.60;;;;;;5028611;28;20186;-91
2022/02/13 16:10:40;;;;;;;8.50;3.40;;;11.90;99.50;;;;;;5017507;28;20210;-91
2022/02/13 16:13:07;;;;;;;17.97;5.70;;;11.90;99.70;;;;;;5026297;28;20259;-91
2022/02/13 16:15:33;;;;;;;15.00;5.93;;;11.90;99.60;;;;;;5034199;28;20183;-91
2022/02/13 16:17:58;;;;;;;33.40;12.70;;;11.90;99.70;;;;;;5018330;28;20216;-87
2022/02/13 16:20:25;;;;;;;31.30;12.50;;;11.80;99.80;;;;;;5046366;28;20572;-86
2022/02/13 16:22:51;;;;;;;10.53;6.30;;;11.80;99.90;;;;;;5037047;28;20207;-85
2022/02/13 16:25:19;;;;;;;12.47;4.87;;;11.80;99.90;;;;;;5042288;28;20189;-88
2022/02/13 16:27:45;;;;;;;16.20;4.80;;;11.80;99.90;;;;;;5040377;28;20602;-88
2022/02/13 16:30:10;;;;;;;7.73;4.53;;;11.90;99.90;;;;;;5043546;28;20188;-83
2022/02/13 16:32:36;;;;;;;14.83;6.17;;;11.90;99.90;;;;;;5050682;28;20200;-90
2022/02/13 16:35:02;;;;;;;11.53;4.97;;;11.80;99.90;;;;;;5028550;28;20267;-89
2022/02/13 16:37:28;;;;;;;14.37;5.73;;;11.70;99.90;;;;;;5016200;28;20303;-91
2022/02/13 16:39:53;;;;;;;10.37;4.87;;;11.70;99.90;;;;;;5034881;28;20189;-91
2022/02/13 16:42:23;;;;;;;10.47;4.73;;;11.70;99.90;;;;;;5016465;28;20234;-90
2022/02/13 16:44:49;;;;;;;17.20;5.77;;;11.60;99.90;;;;;;5034053;28;20200;-89
2022/02/13 16:47:17;;;;;;;10.80;4.47;;;11.60;99.90;;;;;;5024930;28;20195;-89
2022/02/13 17:00:29;;;;;;;9.57;4.27;;;11.40;99.90;;;;;;5311460;22;20476;-82
2022/02/13 17:02:55;;;;;;;8.20;4.00;;;11.50;99.90;;;;;;5015488;28;20207;-83
2022/02/13 17:05:21;;;;;;;10.60;4.70;;;11.70;99.90;;;;;;5014584;28;20205;-83
2022/02/13 17:07:47;;;;;;;9.60;4.13;;;11.80;99.90;;;;;;5015097;28;20220;-83
2022/02/13 17:10:12;;;;;;;10.57;4.87;;;11.70;99.90;;;;;;5018374;28;20194;-83
2022/02/13 17:12:38;;;;;;;8.33;4.93;;;11.60;99.90;;;;;;5051575;28;20183;-83
2022/02/13 17:15:04;;;;;;;9.03;4.23;;;11.60;99.90;;;;;;5051014;28;20183;-83
2022/02/13 17:17:29;;;;;;;10.73;4.57;;;11.60;99.90;;;;;;5047024;28;20219;-83
2022/02/13 18:43:33;;;;;;;11.40;5.00;;;11.80;99.90;;;;;;5576428;22;20314;-80
2022/02/13 18:45:59;;;;;;;11.90;5.77;;;11.80;99.90;;;;;;5013967;28;20661;-81
2022/02/13 18:48:25;;;;;;;9.37;5.77;;;11.80;99.90;;;;;;5000487;28;20189;-81
2022/02/13 18:50:51;;;;;;;11.47;5.10;;;11.80;99.90;;;;;;5050492;28;20187;-80
2022/02/13 18:53:17;;;;;;;10.57;4.87;;;11.70;99.90;;;;;;5037003;28;20211;-80
2022/02/13 18:55:43;;;;;;;11.13;5.57;;;11.70;99.90;;;;;;5036546;28;20250;-80
2022/02/13 18:58:08;;;;;;;13.03;6.17;;;11.80;99.90;;;;;;5022927;28;20221;-82
2022/02/13 19:00:34;;;;;;;11.97;4.77;;;11.80;99.90;;;;;;5023638;28;20727;-81
2022/02/13 19:02:59;;;;;;;15.00;5.03;;;11.80;99.90;;;;;;5036504;28;20273;-80
2022/02/13 19:05:25;;;;;;;13.77;6.83;;;11.80;99.90;;;;;;5020802;28;20164;-80
2022/02/13 19:07:51;;;;;;;12.87;7.93;;;11.80;99.90;;;;;;5035639;28;20176;-82
2022/02/13 19:10:16;;;;;;;27.13;12.30;;;11.80;99.90;;;;;;5049154;28;20653;-80
2022/02/13 19:12:42;;;;;;;42.90;21.50;;;11.80;99.90;;;;;;5030838;28;20188;-80
2022/02/13 19:15:08;;;;;;;16.83;9.93;;;11.80;99.90;;;;;;5033943;28;20318;-80
2022/02/13 19:17:34;;;;;;;21.23;12.50;;;11.70;99.90;;;;;;5032869;28;20295;-80
2022/02/13 19:20:00;;;;;;;18.87;10.60;;;11.70;99.90;;;;;;5033548;28;20788;-81
2022/02/13 19:22:26;;;;;;;10.17;5.10;;;11.70;99.90;;;;;;5050957;28;20180;-80
2022/02/13 19:24:52;;;;;;;7.77;4.00;;;11.70;99.90;;;;;;5031644;28;20439;-80
2022/02/13 19:30:02;;;;;;;6.93;3.40;;;11.70;99.90;;;;;;5045336;28;20203;-80
2022/02/13 19:32:28;;;;;;;10.03;4.50;;;11.70;99.90;;;;;;5028899;28;20180;-81
2022/02/13 19:34:54;;;;;;;10.50;4.20;;;11.80;99.90;;;;;;5049785;28;20207;-81
2022/02/13 19:37:19;;;;;;;8.50;3.17;;;11.80;99.90;;;;;;5032768;28;20197;-80
2022/02/13 19:39:45;;;;;;;6.67;3.27;;;11.80;99.90;;;;;;5022980;28;20622;-80
2022/02/13 19:42:11;;;;;;;9.30;4.43;;;11.80;99.90;;;;;;5028542;28;20253;-80
2022/02/13 19:44:36;;;;;;;10.73;4.90;;;11.90;99.90;;;;;;5034872;28;20261;-80
2022/02/13 19:47:03;;;;;;;15.80;7.50;;;11.90;99.90;;;;;;5035320;28;20700;-82
2022/02/13 19:49:30;;;;;;;13.10;8.30;;;11.90;99.90;;;;;;5038562;28;20172;-83
2022/02/13 19:51:56;;;;;;;9.83;5.17;;;11.90;99.90;;;;;;5023908;28;20172;-82
2022/02/13 19:54:21;;;;;;;9.40;5.63;;;11.90;99.90;;;;;;5026094;28;20281;-80
2022/02/13 19:56:48;;;;;;;7.50;4.30;;;11.90;99.90;;;;;;5026390;28;20335;-80
2022/02/13 19:59:14;;;;;;;8.03;4.47;;;11.90;99.90;;;;;;5024034;28;20179;-81
2022/02/13 20:01:41;;;;;;;10.10;4.70;;;12.00;99.90;;;;;;5034053;28;20187;-81
2022/02/13 20:04:07;;;;;;;6.37;3.67;;;12.00;99.90;;;;;;5035426;28;20200;-80
2022/02/13 20:06:35;;;;;;;8.63;3.90;;;12.00;99.90;;;;;;5035714;28;20172;-79